createdAt,value
2022-12-22T00:06:48.536Z,9.3
2022-12-22T00:21:48.505Z,9.4
2022-12-22T00:36:48.507Z,9.3
2022-12-22T00:51:48.502Z,9.3
2022-12-22T01:06:48.508Z,9.5
2022-12-22T01:21:48.516Z,9.5
2022-12-22T01:36:48.515Z,9.6
2022-12-22T01:51:48.507Z,9.6
2022-12-22T02:06:48.499Z,9.6
2022-12-22T02:21:48.550Z,9.6
2022-12-22T02:36:48.510Z,9.5
2022-12-22T02:51:48.520Z,9.5
2022-12-22T03:06:48.537Z,9.5
2022-12-22T03:21:48.499Z,9.5
2022-12-22T03:36:48.524Z,9.4
2022-12-22T03:51:48.496Z,9.4
2022-12-22T04:06:48.527Z,9.4
2022-12-22T04:21:48.503Z,9.4
2022-12-22T04:36:48.572Z,9.3
2022-12-22T04:51:48.550Z,9.2
2022-12-22T05:06:48.503Z,9.3
2022-12-22T05:21:48.532Z,9.4
2022-12-22T05:36:48.495Z,9.3
2022-12-22T05:51:48.517Z,9.3
2022-12-22T06:06:48.506Z,9.2
2022-12-22T06:21:48.498Z,9.2
2022-12-22T06:36:48.497Z,9.2
2022-12-22T06:51:48.528Z,9.2
2022-12-22T07:06:48.546Z,9.2
2022-12-22T07:21:48.675Z,9.1
2022-12-22T07:36:48.515Z,9.2
2022-12-22T07:51:48.512Z,9.2
2022-12-22T08:06:48.554Z,9.1
2022-12-22T08:21:52.365Z,9
2022-12-22T08:36:48.497Z,9
2022-12-22T08:51:48.530Z,8.9
2022-12-22T09:06:48.538Z,8.9
2022-12-22T09:21:48.515Z,8.9
2022-12-22T09:36:48.553Z,8.8
2022-12-22T09:51:48.534Z,8.8
2022-12-22T10:06:48.539Z,8.5
2022-12-22T10:21:48.522Z,8.7
2022-12-22T10:36:48.529Z,8.6
2022-12-22T10:51:48.515Z,8.5
2022-12-22T11:06:48.506Z,8.7
2022-12-22T11:21:48.515Z,8.7
2022-12-22T11:36:48.529Z,8.6
2022-12-22T11:51:48.497Z,8.6
2022-12-22T12:06:48.539Z,8.9
2022-12-22T12:21:48.533Z,9.2
2022-12-22T12:36:48.501Z,9.1
2022-12-22T12:51:48.538Z,9.1
2022-12-22T13:06:49.593Z,9
2022-12-22T13:21:53.759Z,9.2
2022-12-22T13:36:48.500Z,9.2
2022-12-22T13:51:48.529Z,9.2
2022-12-22T14:06:48.538Z,9.2
2022-12-22T14:21:48.529Z,9.2
2022-12-22T14:36:53.782Z,9.1
2022-12-22T14:51:48.517Z,8.6
2022-12-22T15:06:48.489Z,8.6
2022-12-22T15:21:48.451Z,8.6
2022-12-22T15:36:48.521Z,8.7
2022-12-22T15:51:48.537Z,8.8
2022-12-22T16:06:48.552Z,8.8
2022-12-22T16:21:48.551Z,8.8
2022-12-22T16:36:48.508Z,8.9
2022-12-22T16:51:48.543Z,9.1
2022-12-22T17:06:48.498Z,9.2
2022-12-22T17:21:48.533Z,9.4
2022-12-22T17:36:48.509Z,9.4
2022-12-22T17:51:48.584Z,9.5
2022-12-22T18:06:48.504Z,9.4
2022-12-22T18:21:48.524Z,9.4
2022-12-22T18:36:48.507Z,9.6
2022-12-22T18:51:48.526Z,9.8
2022-12-22T19:06:48.536Z,9.8
2022-12-22T19:21:48.510Z,9.8
2022-12-22T19:36:48.546Z,9.8
2022-12-22T19:51:48.538Z,9.6
2022-12-22T20:06:48.525Z,9.6
2022-12-22T20:21:48.502Z,9.5
2022-12-22T20:36:48.527Z,9.4
2022-12-22T20:51:48.464Z,9.3
2022-12-22T21:06:48.532Z,9.2
2022-12-22T21:21:48.539Z,9.2
2022-12-22T21:36:48.529Z,9.1
2022-12-22T21:51:48.547Z,9.1
2022-12-22T22:06:48.525Z,9.1
2022-12-22T22:21:48.565Z,9.1
2022-12-22T22:36:48.514Z,9.2
2022-12-22T22:51:48.520Z,9.2
2022-12-22T23:06:48.520Z,9.3
2022-12-22T23:21:48.502Z,9.4
2022-12-22T23:36:48.509Z,9.4
2022-12-22T23:51:48.544Z,9.4
